createdAt,value
2022-09-12T00:01:27.700Z,104183.44
2022-09-12T00:03:55.288Z,104187.88
2022-09-12T00:06:23.434Z,104176.47
2022-09-12T00:08:50.479Z,104172.88
2022-09-12T00:11:16.822Z,104177.31
2022-09-12T00:13:43.865Z,104165.00
2022-09-12T00:16:17.909Z,104171.22
2022-09-12T00:18:46.233Z,104171.19
2022-09-12T00:21:13.355Z,104157.03
2022-09-12T00:23:39.778Z,104012.13
2022-09-12T00:26:06.684Z,103994.44
2022-09-12T00:28:33.756Z,103985.69
2022-09-12T00:31:00.211Z,103978.59
2022-09-12T00:33:26.528Z,103984.78
2022-09-12T00:35:53.017Z,103996.28
2022-09-12T00:38:20.396Z,104000.69
2022-09-12T00:40:46.950Z,104006.88
2022-09-12T00:43:14.999Z,104002.47
2022-09-12T00:45:42.564Z,103973.34
2022-09-12T00:48:17.006Z,103976.88
2022-09-12T00:50:43.384Z,103968.03
2022-09-12T00:53:09.982Z,103963.66
2022-09-12T00:55:37.710Z,103957.53
2022-09-12T00:58:09.043Z,103954.06
2022-09-12T01:00:35.811Z,103948.78
2022-09-12T01:03:05.708Z,103955.78
2022-09-12T01:05:34.326Z,103945.13
2022-09-12T01:08:01.483Z,103963.69
2022-09-12T01:10:27.941Z,103959.28
2022-09-12T01:12:54.275Z,103966.34
2022-09-12T01:15:20.647Z,103983.13
2022-09-12T01:17:56.226Z,103995.50
2022-09-12T01:20:41.423Z,104000.84
2022-09-12T01:23:26.331Z,104014.97
2022-09-12T01:26:18.274Z,104018.50
2022-09-12T01:29:03.486Z,103999.19
2022-09-12T01:31:35.022Z,103982.44
2022-09-12T01:34:07.504Z,103961.16
2022-09-12T01:36:41.079Z,103964.72
2022-09-12T01:39:27.683Z,103978.78
2022-09-12T01:42:10.118Z,103940.81
2022-09-12T01:44:48.107Z,103934.69
2022-09-12T01:47:19.790Z,103937.31
2022-09-12T01:49:52.084Z,103941.75
2022-09-12T01:52:23.033Z,103935.56
2022-09-12T01:54:53.321Z,103925.91
2022-09-12T01:57:24.992Z,103810.22
2022-09-12T01:59:54.697Z,103673.41
2022-09-12T02:02:23.991Z,103661.91
2022-09-12T02:04:53.174Z,103669.91
2022-09-12T02:07:39.783Z,103674.28
2022-09-12T02:10:09.850Z,103684.00
2022-09-12T02:12:44.193Z,103714.03
2022-09-12T02:15:12.267Z,103712.25
2022-09-12T02:17:42.419Z,103717.56
2022-09-12T02:20:17.768Z,103719.34
2022-09-12T02:22:58.036Z,103722.94
2022-09-12T02:25:25.382Z,103701.81
2022-09-12T02:28:21.627Z,103684.25
2022-09-12T02:30:56.500Z,103685.91
2022-09-12T02:33:38.189Z,103700.00
2022-09-12T02:36:13.514Z,103709.72
2022-09-12T02:38:46.896Z,103703.66
2022-09-12T02:41:16.836Z,103713.38
2022-09-12T02:43:43.395Z,103707.16
2022-09-12T02:46:13.161Z,103717.75
2022-09-12T02:48:42.689Z,103724.78
2022-09-12T02:51:09.453Z,103724.78
2022-09-12T02:53:36.596Z,103732.72
2022-09-12T02:56:05.415Z,103718.63
2022-09-12T02:58:32.569Z,103723.09
2022-09-12T03:01:17.697Z,103722.19
2022-09-12T03:03:54.733Z,103700.13
2022-09-12T03:06:35.746Z,103694.84
2022-09-12T03:09:07.376Z,103663.06
2022-09-12T03:11:34.165Z,103639.28
2022-09-12T03:14:22.133Z,103625.16
2022-09-12T03:17:08.706Z,103504.38
2022-09-12T03:19:41.902Z,103480.72
2022-09-12T03:22:08.201Z,103480.75
2022-09-12T03:24:34.493Z,103493.09
2022-09-12T03:27:14.059Z,103500.09
2022-09-12T03:29:41.123Z,103502.75
2022-09-12T03:32:07.543Z,103516.88
2022-09-12T03:34:33.886Z,103518.69
2022-09-12T03:37:00.320Z,103515.09
2022-09-12T03:39:26.926Z,103534.50
2022-09-12T03:41:53.936Z,103562.66
2022-09-12T03:44:20.555Z,103559.19
2022-09-12T03:46:47.114Z,103575.03
2022-09-12T03:49:13.493Z,103575.09
2022-09-12T03:51:40.042Z,103569.81
2022-09-12T03:54:06.428Z,103565.41
2022-09-12T03:56:32.845Z,103568.91
2022-09-12T03:58:59.289Z,103570.66
2022-09-12T04:01:25.637Z,103577.72
2022-09-12T04:03:52.533Z,103594.47
2022-09-12T04:06:20.587Z,103570.69
2022-09-12T04:08:51.654Z,103590.13
2022-09-12T04:11:18.884Z,103582.19
2022-09-12T04:13:45.783Z,103580.47
2022-09-12T04:16:12.852Z,103587.59
2022-09-12T04:18:39.537Z,103577.84
2022-09-12T04:21:06.935Z,103571.75
2022-09-12T04:23:33.631Z,103581.47
2022-09-12T04:26:00.822Z,103599.09
2022-09-12T04:28:29.051Z,103601.72
2022-09-12T04:30:55.666Z,103601.66
2022-09-12T04:33:22.118Z,103601.63
2022-09-12T04:35:48.612Z,103610.44
2022-09-12T04:38:15.015Z,103608.75
2022-09-12T04:40:41.334Z,103614.06
2022-09-12T04:43:11.189Z,103612.28
2022-09-12T04:45:40.155Z,103602.53
2022-09-12T04:48:06.490Z,103602.50
2022-09-12T04:50:33.030Z,103605.19
2022-09-12T04:52:59.361Z,103619.22
2022-09-12T04:55:26.186Z,103612.13
2022-09-12T04:57:53.002Z,103631.47
2022-09-12T05:00:19.409Z,103642.94
2022-09-12T05:02:46.386Z,103652.66
2022-09-12T05:05:12.698Z,103665.88
2022-09-12T05:07:39.190Z,103672.00
2022-09-12T05:10:05.698Z,103677.38
2022-09-12T05:12:32.043Z,103698.56
2022-09-12T05:14:58.361Z,103680.88
2022-09-12T05:17:24.690Z,103669.34
2022-09-12T05:19:51.004Z,103685.13
2022-09-12T05:22:17.308Z,103685.94
2022-09-12T05:24:58.238Z,103685.88
2022-09-12T05:27:24.686Z,103683.19
2022-09-12T05:29:51.233Z,103683.97
2022-09-12T05:32:17.635Z,103700.69
2022-09-12T05:34:44.032Z,103715.63
2022-09-12T05:37:10.356Z,103727.94
2022-09-12T05:39:36.655Z,103688.13
2022-09-12T05:42:03.572Z,103688.03
2022-09-12T05:44:29.921Z,103693.19
2022-09-12T05:46:56.356Z,103707.22
2022-09-12T05:49:22.843Z,103707.06
2022-09-12T05:51:53.878Z,103685.66
2022-09-12T05:54:21.165Z,103647.56
2022-09-12T05:56:47.951Z,103627.06
2022-09-12T05:59:19.218Z,103641.06
2022-09-12T06:01:46.166Z,103622.28
2022-09-12T06:04:12.983Z,103633.63
2022-09-12T06:06:41.692Z,103635.97
2022-09-12T06:09:08.217Z,103653.28
2022-09-12T06:11:37.143Z,103672.59
2022-09-12T06:14:03.863Z,103571.44
2022-09-12T06:16:31.994Z,103427.00
2022-09-12T06:18:59.701Z,103418.34
2022-09-12T06:21:27.164Z,103433.44
2022-09-12T06:23:54.300Z,103441.69
2022-09-12T06:26:23.598Z,103451.22
2022-09-12T06:28:50.283Z,103452.53
2022-09-12T06:31:18.532Z,103458.84
2022-09-12T06:33:46.175Z,103471.09
2022-09-12T06:36:14.429Z,103481.22
2022-09-12T06:38:40.822Z,103480.25
2022-09-12T06:41:11.495Z,103486.50
2022-09-12T06:43:38.661Z,103480.91
2022-09-12T06:46:05.887Z,103470.09
2022-09-12T06:48:32.305Z,103463.09
2022-09-12T06:51:02.325Z,103461.09
2022-09-12T06:53:30.071Z,103437.03
2022-09-12T06:56:00.699Z,103422.31
2022-09-12T06:58:27.944Z,103388.53
2022-09-12T07:01:02.370Z,103374.66
2022-09-12T07:03:29.394Z,103350.09
2022-09-12T07:05:55.737Z,103347.72
2022-09-12T07:08:22.068Z,103338.34
2022-09-12T07:10:48.692Z,103328.22
2022-09-12T07:13:15.038Z,103300.78
2022-09-12T07:15:41.386Z,103274.69
2022-09-12T07:18:09.122Z,103257.63
2022-09-12T07:20:37.160Z,103254.88
2022-09-12T07:23:03.531Z,103248.56
2022-09-12T07:25:29.888Z,103247.91
2022-09-12T07:27:56.207Z,103245.00
2022-09-12T07:30:23.104Z,103258.03
2022-09-12T07:32:53.671Z,103274.69
2022-09-12T07:35:20.634Z,103285.97
2022-09-12T07:37:47.222Z,103280.50
2022-09-12T07:40:13.677Z,103298.34
2022-09-12T07:42:40.042Z,103301.03
2022-09-12T07:45:07.830Z,103292.34
2022-09-12T07:47:34.209Z,103281.56
2022-09-12T07:50:00.602Z,103277.41
2022-09-12T07:52:27.069Z,103258.56
2022-09-12T07:54:53.416Z,103224.25
2022-09-12T07:57:19.832Z,103197.59
2022-09-12T07:59:53.014Z,103129.53
2022-09-12T08:02:20.274Z,103064.72
2022-09-12T08:04:47.989Z,102991.16
2022-09-12T08:07:14.662Z,102920.56
2022-09-12T08:09:40.996Z,102832.72
2022-09-12T08:12:07.606Z,102760.09
2022-09-12T08:14:33.910Z,102682.34
2022-09-12T08:17:00.250Z,102586.66
2022-09-12T08:19:26.581Z,102518.63
2022-09-12T08:21:52.933Z,102447.53
2022-09-12T08:24:19.317Z,102389.25
2022-09-12T08:26:45.907Z,102319.41
2022-09-12T08:29:12.248Z,102246.75
2022-09-12T08:31:38.737Z,102212.50
2022-09-12T08:34:05.491Z,102156.16
2022-09-12T08:36:32.276Z,102123.84
2022-09-12T08:39:04.116Z,102104.53
2022-09-12T08:41:39.723Z,102077.13
2022-09-12T08:44:24.747Z,102044.56
2022-09-12T08:46:57.329Z,102031.66
2022-09-12T08:49:35.990Z,102032.66
2022-09-12T08:52:13.291Z,102026.78
2022-09-12T08:54:39.858Z,102019.75
2022-09-12T08:57:09.006Z,102009.81
2022-09-12T08:59:38.266Z,101993.75
2022-09-12T09:02:15.034Z,101990.94
2022-09-12T09:04:51.921Z,101987.16
2022-09-12T09:07:45.494Z,101992.16
2022-09-12T09:10:18.004Z,101995.06
2022-09-12T09:12:58.053Z,101990.66
2022-09-12T09:15:34.594Z,101984.59
2022-09-12T09:18:19.699Z,101990.56
2022-09-12T09:20:51.601Z,101992.66
2022-09-12T09:23:30.933Z,101987.56
2022-09-12T09:26:11.145Z,101979.13
2022-09-12T09:28:42.339Z,101968.53
2022-09-12T09:31:15.742Z,101967.38
2022-09-12T09:33:42.202Z,101970.75
2022-09-12T09:36:20.864Z,101969.00
2022-09-12T09:38:47.279Z,101969.84
2022-09-12T09:41:19.819Z,101958.59
2022-09-12T09:43:46.198Z,101972.53
2022-09-12T09:46:14.041Z,101961.81
2022-09-12T09:48:42.233Z,101961.66
2022-09-12T09:51:09.344Z,101963.09
2022-09-12T09:53:54.859Z,101960.91
2022-09-12T09:56:33.479Z,101960.41
2022-09-12T09:59:13.185Z,101958.13
2022-09-12T10:01:46.365Z,101958.47
2022-09-12T10:04:20.517Z,101961.41
2022-09-12T10:06:47.008Z,101963.00
2022-09-12T10:09:26.045Z,101973.84
2022-09-12T10:11:52.864Z,101974.81
2022-09-12T10:14:28.573Z,101973.22
2022-09-12T10:16:55.060Z,101973.50
2022-09-12T10:19:25.434Z,101971.13
2022-09-12T10:21:53.048Z,101980.09
2022-09-12T10:24:23.100Z,101977.94
2022-09-12T10:26:56.568Z,101976.03
2022-09-12T10:29:25.412Z,101973.94
2022-09-12T10:31:54.431Z,101974.47
2022-09-12T10:34:34.326Z,101972.53
2022-09-12T10:37:17.056Z,101967.16
2022-09-12T10:39:50.135Z,101964.94
2022-09-12T10:42:36.476Z,101965.16
2022-09-12T10:45:02.837Z,101961.97
2022-09-12T10:47:30.793Z,101964.75
2022-09-12T10:50:22.525Z,101968.69
2022-09-12T10:52:49.487Z,101963.50
2022-09-12T10:55:15.977Z,101960.72
2022-09-12T10:57:45.281Z,101951.22
2022-09-12T11:00:17.603Z,101941.53
2022-09-12T11:02:50.710Z,101926.19
2022-09-12T11:05:36.537Z,101909.41
2022-09-12T11:08:17.363Z,101877.38
2022-09-12T11:10:54.396Z,101853.91
2022-09-12T11:13:45.997Z,101826.88
2022-09-12T11:16:31.104Z,101810.06
2022-09-12T11:19:10.722Z,101805.44
2022-09-12T11:21:55.957Z,101806.53
2022-09-12T11:24:31.915Z,101806.06
2022-09-12T11:27:08.875Z,101781.56
2022-09-12T11:29:47.204Z,101944.47
2022-09-12T11:32:32.484Z,101912.25
2022-09-12T11:35:15.118Z,101917.75
2022-09-12T11:37:55.464Z,101932.44
2022-09-12T11:40:34.090Z,101943.81
2022-09-12T11:43:05.516Z,101926.38
2022-09-12T11:45:39.694Z,101905.44
2022-09-12T11:48:08.515Z,101854.44
2022-09-12T11:50:34.857Z,101844.94
2022-09-12T11:53:27.993Z,101881.19
2022-09-12T11:55:59.485Z,101874.91
2022-09-12T11:58:27.223Z,101848.69
2022-09-12T12:00:56.345Z,101796.56
2022-09-12T12:03:43.013Z,101778.72
2022-09-12T12:06:21.458Z,101778.53
2022-09-12T12:08:49.010Z,101778.50
2022-09-12T12:11:24.534Z,101779.16
2022-09-12T12:14:14.646Z,101770.06
2022-09-12T12:16:41.755Z,101769.31
2022-09-12T12:19:22.897Z,101764.66
2022-09-12T12:21:50.645Z,101754.47
2022-09-12T12:24:21.887Z,101757.06
2022-09-12T12:26:58.870Z,101751.31
2022-09-12T12:29:31.313Z,101727.78
2022-09-12T12:32:03.651Z,101733.72
2022-09-12T12:34:36.521Z,101724.81
2022-09-12T12:37:21.415Z,101722.94
2022-09-12T12:39:55.492Z,101719.66
2022-09-12T12:42:30.904Z,101712.41
2022-09-12T12:44:57.216Z,101667.28
2022-09-12T12:47:25.251Z,101644.59
2022-09-12T12:49:53.275Z,101645.63
2022-09-12T12:52:19.852Z,101637.31
2022-09-12T12:54:46.224Z,101652.38
2022-09-12T12:57:17.756Z,101650.13
2022-09-12T12:59:47.104Z,101645.72
2022-09-12T13:02:19.917Z,101691.88
2022-09-12T13:04:46.303Z,101685.78
2022-09-12T13:07:22.295Z,101605.88
2022-09-12T13:09:52.846Z,101528.13
2022-09-12T13:12:27.477Z,101579.34
2022-09-12T13:14:55.657Z,101619.25
2022-09-12T13:17:26.027Z,101643.03
2022-09-12T13:20:16.924Z,101707.91
2022-09-12T13:22:45.744Z,101727.50
2022-09-12T13:25:21.508Z,101716.41
2022-09-12T13:27:58.307Z,101703.06
2022-09-12T13:30:25.827Z,101690.06
2022-09-12T13:32:52.887Z,101638.59
2022-09-12T13:35:21.947Z,101573.72
2022-09-12T13:38:06.587Z,101521.69
2022-09-12T13:40:32.871Z,101360.00
2022-09-12T13:43:12.717Z,101345.97
2022-09-12T13:45:39.649Z,101337.22
2022-09-12T13:48:10.243Z,101408.88
2022-09-12T13:50:42.271Z,101469.72
2022-09-12T13:53:16.903Z,101479.16
2022-09-12T13:55:47.535Z,101511.75
2022-09-12T13:58:22.871Z,101528.53
2022-09-12T14:01:03.026Z,101519.38
2022-09-12T14:03:49.630Z,101470.22
2022-09-12T14:06:16.555Z,101486.38
2022-09-12T14:08:43.643Z,101460.81
2022-09-12T14:11:10.963Z,101424.94
2022-09-12T14:13:39.132Z,101369.72
2022-09-12T14:16:09.825Z,101407.16
2022-09-12T14:18:37.815Z,101461.31
2022-09-12T14:21:10.488Z,101444.75
2022-09-12T14:23:41.075Z,101475.63
2022-09-12T14:26:09.760Z,101454.78
2022-09-12T14:28:37.550Z,101420.41
2022-09-12T14:31:06.605Z,101268.13
2022-09-12T14:33:34.727Z,101160.72
2022-09-12T14:36:10.083Z,101156.97
2022-09-12T14:38:47.077Z,101126.53
2022-09-12T14:41:20.346Z,101131.28
2022-09-12T14:43:47.340Z,101238.38
2022-09-12T14:46:24.803Z,101402.19
2022-09-12T14:48:57.620Z,101397.19
2022-09-12T14:51:29.037Z,101238.59
2022-09-12T14:53:55.564Z,101258.78
2022-09-12T14:56:36.614Z,101370.34
2022-09-12T14:59:21.547Z,101492.00
2022-09-12T15:01:47.951Z,101587.84
2022-09-12T15:04:34.275Z,101613.44
2022-09-12T15:07:13.299Z,101612.91
2022-09-12T15:09:43.905Z,101638.66
2022-09-12T15:12:12.836Z,101662.78
2022-09-12T15:14:39.158Z,101680.91
2022-09-12T15:17:05.539Z,101678.22
2022-09-12T15:19:31.887Z,101671.78
2022-09-12T15:21:58.214Z,101668.31
2022-09-12T15:24:24.546Z,101660.28
2022-09-12T15:26:50.908Z,101652.19
2022-09-12T15:29:17.226Z,101639.25
2022-09-12T15:31:46.067Z,101644.06
2022-09-12T15:34:12.673Z,101633.00
2022-09-12T15:36:39.022Z,101618.78
2022-09-12T15:39:05.390Z,101605.94
2022-09-12T15:41:32.870Z,101593.47
2022-09-12T15:43:59.215Z,101581.53
2022-09-12T15:46:25.599Z,101570.72
2022-09-12T15:48:51.956Z,101571.84
2022-09-12T15:51:19.553Z,101573.06
2022-09-12T15:53:46.697Z,101563.56
2022-09-12T15:56:14.510Z,101552.66
2022-09-12T15:58:57.251Z,101546.25
2022-09-12T16:01:24.512Z,101540.97
2022-09-12T16:03:50.987Z,101522.25
2022-09-12T16:06:17.326Z,101517.72
2022-09-12T16:08:43.639Z,101501.25
2022-09-12T16:11:26.981Z,101491.28
2022-09-12T16:13:53.833Z,101477.94
2022-09-12T16:16:20.260Z,101467.75
2022-09-12T16:18:46.820Z,101456.13
2022-09-12T16:21:15.552Z,101436.09
2022-09-12T16:23:43.127Z,101424.22
2022-09-12T16:26:09.472Z,101409.44
2022-09-12T16:28:35.779Z,101408.75
2022-09-12T16:31:06.306Z,101381.38
2022-09-12T16:33:33.471Z,101353.84
2022-09-12T16:36:18.967Z,101326.16
2022-09-12T16:38:46.635Z,101326.00
2022-09-12T16:41:13.828Z,101323.78
2022-09-12T16:43:40.383Z,101300.13
2022-09-12T16:46:08.553Z,101291.34
2022-09-12T16:48:34.978Z,101284.38
2022-09-12T16:51:02.881Z,101275.47
2022-09-12T16:53:33.288Z,101257.47
2022-09-12T16:56:00.042Z,101248.53
2022-09-12T16:58:26.840Z,101260.28
2022-09-12T17:00:59.976Z,101255.19
2022-09-12T17:03:26.291Z,101252.50
2022-09-12T17:06:02.887Z,101253.06
2022-09-12T17:08:29.846Z,101247.53
2022-09-12T17:11:03.256Z,101249.66
2022-09-12T17:13:46.913Z,101243.16
2022-09-12T17:16:16.713Z,101225.16
2022-09-12T17:18:43.095Z,101214.81
2022-09-12T17:21:10.547Z,101209.84
2022-09-12T17:23:37.381Z,101205.75
2022-09-12T17:26:03.986Z,101186.78
2022-09-12T17:28:30.327Z,101171.75
2022-09-12T17:31:01.261Z,101147.84
2022-09-12T17:33:28.272Z,101138.06
2022-09-12T17:35:54.923Z,101128.44
2022-09-12T17:38:25.137Z,101126.25
2022-09-12T17:40:59.477Z,101125.97
2022-09-12T17:43:26.436Z,101128.38
2022-09-12T17:45:57.178Z,101137.16
2022-09-12T17:48:23.777Z,101136.13
2022-09-12T17:50:50.632Z,101129.50
2022-09-12T17:53:17.554Z,101131.31
2022-09-12T17:55:43.948Z,101131.19
2022-09-12T17:58:10.840Z,101124.69
2022-09-12T18:00:55.923Z,101111.53
2022-09-12T18:03:23.028Z,101111.94
2022-09-12T18:05:52.379Z,101117.00
2022-09-12T18:08:19.137Z,101110.53
2022-09-12T18:10:45.810Z,101109.69
2022-09-12T18:13:12.848Z,101116.38
2022-09-12T18:15:39.443Z,101142.81
2022-09-12T18:18:06.001Z,101149.03
2022-09-12T18:20:32.495Z,101152.53
2022-09-12T18:22:59.218Z,101154.94
2022-09-12T18:25:25.652Z,101150.47
2022-09-12T18:27:52.101Z,101153.41
2022-09-12T18:30:21.974Z,101151.69
2022-09-12T18:32:48.658Z,101145.63
2022-09-12T18:35:15.411Z,101147.56
2022-09-12T18:37:42.002Z,101139.22
2022-09-12T18:40:09.171Z,101139.31
2022-09-12T18:42:35.559Z,101131.69
2022-09-12T18:45:01.881Z,101133.56
2022-09-12T18:47:28.684Z,101131.69
2022-09-12T18:49:55.177Z,101126.88
2022-09-12T18:52:21.486Z,101135.69
2022-09-12T18:54:47.808Z,101126.28
2022-09-12T18:57:14.124Z,101127.53
2022-09-12T18:59:40.472Z,101125.50
2022-09-12T19:02:07.100Z,101127.50
2022-09-12T19:04:33.795Z,101127.03
2022-09-12T19:07:01.034Z,101135.34
2022-09-12T19:09:27.404Z,101125.28
2022-09-12T19:11:53.744Z,101120.91
2022-09-12T19:14:22.757Z,101120.63
2022-09-12T19:16:50.766Z,101113.44
2022-09-12T19:19:17.119Z,101112.41
2022-09-12T19:21:43.891Z,101114.25
2022-09-12T19:24:10.578Z,101113.25
2022-09-12T19:26:37.653Z,101110.59
2022-09-12T19:29:04.102Z,101108.56
2022-09-12T19:31:31.160Z,101101.31
2022-09-12T19:34:01.824Z,101100.78
2022-09-12T19:36:44.475Z,101087.41
2022-09-12T19:39:12.029Z,101087.16
2022-09-12T19:41:38.508Z,101089.44
2022-09-12T19:44:05.538Z,101083.38
2022-09-12T19:46:32.085Z,101080.53
2022-09-12T19:48:58.494Z,101074.41
2022-09-12T19:51:25.189Z,101063.75
2022-09-12T19:53:51.660Z,101056.84
2022-09-12T19:56:18.025Z,101055.47
2022-09-12T19:58:45.383Z,101046.44
2022-09-12T20:01:16.182Z,101039.69
2022-09-12T20:03:42.969Z,101033.97
2022-09-12T20:54:13.782Z,100873.56
2022-09-12T20:56:40.148Z,100863.25
2022-09-12T20:59:06.553Z,100859.59
2022-09-12T21:01:33.092Z,100848.84
2022-09-12T21:04:00.816Z,100848.56
2022-09-12T21:06:27.569Z,100838.66
2022-09-12T21:08:58.311Z,100846.44
2022-09-12T21:11:24.670Z,100839.53
2022-09-12T21:13:51.780Z,100828.22
2022-09-12T21:16:19.160Z,100829.06
2022-09-12T21:18:45.852Z,100815.25
2022-09-12T21:21:13.090Z,100821.19
2022-09-12T21:23:39.771Z,100821.44
2022-09-12T21:26:06.517Z,100805.63
2022-09-12T21:28:33.023Z,100798.53
2022-09-12T21:31:00.271Z,100793.91
2022-09-12T21:33:26.657Z,100796.59
2022-09-12T21:35:53.053Z,100803.06
2022-09-12T21:38:20.022Z,100782.75
2022-09-12T21:40:47.072Z,100775.81
2022-09-12T21:43:13.739Z,100782.16
2022-09-12T21:45:40.237Z,100774.28
2022-09-12T21:48:06.600Z,100779.63
2022-09-12T21:50:32.946Z,100775.25
2022-09-12T21:52:59.384Z,100773.13
2022-09-12T21:55:27.214Z,100767.78
2022-09-12T21:57:53.995Z,100763.69
2022-09-12T22:00:20.553Z,100762.69
2022-09-12T22:02:47.406Z,100762.97
2022-09-12T22:05:13.938Z,100754.50
2022-09-12T22:07:40.531Z,100749.41
2022-09-12T22:10:07.501Z,100747.72
2022-09-12T22:12:34.305Z,100754.06
2022-09-12T22:15:12.739Z,100752.50
2022-09-12T22:17:44.027Z,100753.22
2022-09-12T22:20:10.757Z,100753.06
2022-09-12T22:22:55.837Z,100755.91
2022-09-12T22:25:24.657Z,100738.97
2022-09-12T22:27:51.786Z,100737.81
2022-09-12T22:30:18.460Z,100746.16
2022-09-12T22:32:44.873Z,100736.28
2022-09-12T22:35:11.228Z,100732.03
2022-09-12T22:37:37.579Z,100735.00
2022-09-12T22:40:04.181Z,100728.34
2022-09-12T22:42:31.198Z,100733.31
2022-09-12T22:44:57.517Z,100722.56
2022-09-12T22:47:23.851Z,100715.34
2022-09-12T22:49:50.197Z,100718.34
2022-09-12T22:52:16.689Z,100706.47
2022-09-12T22:54:43.310Z,100711.56
2022-09-12T22:57:09.601Z,100716.91
2022-09-12T22:59:35.913Z,100709.03
2022-09-12T23:02:02.234Z,100699.28
2022-09-12T23:04:28.533Z,100700.97
2022-09-12T23:06:54.873Z,100692.38
2022-09-12T23:09:21.239Z,100686.16
2022-09-12T23:11:47.558Z,100686.13
2022-09-12T23:14:13.955Z,100675.56
2022-09-12T23:16:40.278Z,100677.69
2022-09-12T23:19:06.743Z,100680.63
2022-09-12T23:21:33.098Z,100678.38
2022-09-12T23:23:59.421Z,100679.78
2022-09-12T23:26:28.206Z,100676.84
2022-09-12T23:28:55.469Z,100683.63
2022-09-12T23:31:23.440Z,100671.47
2022-09-12T23:33:52.362Z,100661.28
2022-09-12T23:36:18.750Z,100653.41
2022-09-12T23:38:46.305Z,100650.84
2022-09-12T23:41:14.024Z,100652.28
2022-09-12T23:43:40.502Z,100661.44
2022-09-12T23:46:07.289Z,100662.00
2022-09-12T23:48:34.038Z,100646.00
2022-09-12T23:51:00.512Z,100628.66
2022-09-12T23:53:27.408Z,100608.44
2022-09-12T23:55:53.869Z,100583.59
2022-09-12T23:58:22.237Z,100567.22
